Terminal Aerodrome Forecast
Issued by NWS Bismarck, ND

Home | Current Version | Previous Version | Graphics & Text | Print | Product List | Glossary On
Versions: 1 2 3 4 5 6 7 8 9 10 11 12 13 14 15 16
554
FTUS43 KBIS 091130
TAFBIS
TAF
KBIS 091130Z 0912/1012 VRB03KT P6SM OVC045
     FM091800 10004KT P6SM VCSH OVC035
     FM100300 11006KT P6SM -SN OVC020
     FM100600 13007KT 2SM -SN BR OVC010=

USA.gov is the U.S. government's official web portal to all federal, state and local government web resources and services.